Hondo, Texas
Current Conditions -  °F | °C
As of 3:51 PM on Wednesday 28 Jan 2015 (Local Time) from KHDO Reporting Station
Clear Clear  
Wind Chill: 80°   Ceiling: Unl
Heat Index: 80°   Visibility: 10mi
Dew Point: 38°   Wind: 14mph
Humidity: 22%   Direction: 180°S
Pressure: 30.09"   Gusts: NA
Location:  29.35°N, 99.14°W
Report Text: KHDO 282151Z AUTO 18012KT 10SM CLR 27/03 A3009 RMK AO2 SLP182 T02670033
Loading
Personal Weather Stations






























Interactive Weather Map New forecast layout! Learn more

10-Day Weather Forecast

Advertisements
Track Severe Weather on mobile